createdAt,value
2023-05-24T00:04:41.716Z,15.30
2023-05-24T00:09:33.569Z,15.40
2023-05-24T00:14:25.804Z,15.30
2023-05-24T00:19:18.423Z,15.40
2023-05-24T00:24:11.090Z,15.40
2023-05-24T00:29:03.050Z,15.20
2023-05-24T00:33:54.866Z,15.20
2023-05-24T00:38:46.686Z,15.30
2023-05-24T00:43:38.533Z,15.40
2023-05-24T00:48:30.429Z,15.20
2023-05-24T00:53:22.545Z,15.20
2023-05-24T00:58:16.004Z,15.20
2023-05-24T01:03:08.623Z,15.10
2023-05-24T01:08:14.981Z,15.10
2023-05-24T01:13:31.308Z,15.00
2023-05-24T01:18:33.675Z,15.10
2023-05-24T01:23:53.423Z,15.00
2023-05-24T01:28:48.030Z,15.10
2023-05-24T01:33:43.850Z,15.10
2023-05-24T01:49:27.154Z,15.10
2023-05-24T01:54:25.453Z,15.00
2023-05-24T01:59:18.772Z,14.90
2023-05-24T02:04:10.919Z,14.80
2023-05-24T02:09:02.718Z,14.80
2023-05-24T02:13:54.425Z,14.80
2023-05-24T02:18:46.818Z,14.90
2023-05-24T02:23:38.735Z,15.00
2023-05-24T02:28:32.230Z,15.00
2023-05-24T02:33:26.619Z,14.90
2023-05-24T02:38:18.406Z,15.00
2023-05-24T02:43:10.176Z,15.00
2023-05-24T02:48:02.149Z,15.00
2023-05-24T02:52:53.916Z,14.90
2023-05-24T02:57:45.640Z,14.80
2023-05-24T03:02:38.818Z,14.90
2023-05-24T03:07:30.680Z,14.90
2023-05-24T03:12:22.446Z,15.00
2023-05-24T03:17:14.314Z,14.90
2023-05-24T03:22:06.134Z,15.00
2023-05-24T03:26:57.875Z,14.90
2023-05-24T03:31:49.703Z,14.70
2023-05-24T03:36:42.008Z,14.70
2023-05-24T03:41:33.875Z,14.70
2023-05-24T03:46:25.646Z,14.70
2023-05-24T03:51:17.392Z,14.70
2023-05-24T03:56:09.116Z,14.60
2023-05-24T04:06:07.155Z,14.60
2023-05-24T04:10:58.897Z,14.60
2023-05-24T04:15:50.643Z,14.70
2023-05-24T04:20:42.552Z,14.90
2023-05-24T04:25:35.090Z,14.70
2023-05-24T04:41:35.966Z,13.60
2023-05-24T04:46:28.307Z,13.70
2023-05-24T05:12:21.636Z,13.10
2023-05-24T05:27:45.717Z,12.90
2023-05-24T05:32:41.062Z,12.80
2023-05-24T05:37:32.870Z,12.80
2023-05-24T05:42:24.746Z,12.70
2023-05-24T06:15:22.929Z,12.50
2023-05-24T06:20:16.821Z,12.60
2023-05-24T06:25:09.031Z,13.00
2023-05-24T06:30:00.810Z,13.00
2023-05-24T06:34:52.575Z,13.20
2023-05-24T06:39:44.281Z,14.30
2023-05-24T06:44:36.204Z,14.20
2023-05-24T06:49:28.430Z,13.60
2023-05-24T06:54:21.575Z,13.80
2023-05-24T06:59:17.472Z,13.80
2023-05-24T07:04:09.955Z,13.80
2023-05-24T07:09:04.861Z,14.30
2023-05-24T07:25:14.681Z,14.30
2023-05-24T11:50:10.523Z,15.50
2023-05-24T15:09:03.809Z,16.00
2023-05-24T15:19:18.446Z,15.70
2023-05-24T16:26:49.405Z,14.70
2023-05-24T16:41:53.375Z,14.40
2023-05-24T16:46:46.311Z,14.40
2023-05-24T16:51:38.388Z,14.40
2023-05-24T16:56:30.433Z,14.40
2023-05-24T17:06:28.601Z,14.40
2023-05-24T17:11:20.782Z,14.30
2023-05-24T17:16:13.994Z,14.30
2023-05-24T17:21:06.779Z,14.10
2023-05-24T17:25:59.079Z,14.10
2023-05-24T17:41:21.979Z,14.00
2023-05-24T17:57:17.503Z,14.00
2023-05-24T18:12:24.422Z,14.00
2023-05-24T19:30:12.134Z,13.40
2023-05-24T19:35:05.122Z,13.30
2023-05-24T19:45:03.829Z,13.30
2023-05-24T20:00:09.785Z,13.20
2023-05-24T20:05:01.525Z,13.30
2023-05-24T20:09:53.670Z,13.20
2023-05-24T20:24:57.271Z,13.00
2023-05-24T20:35:00.184Z,13.00
2023-05-24T20:44:58.045Z,12.90
2023-05-24T20:49:49.988Z,12.90
2023-05-24T20:54:41.917Z,12.90
2023-05-24T20:59:33.672Z,12.80
2023-05-24T21:20:24.375Z,12.70
2023-05-24T21:25:16.345Z,12.60
2023-05-24T21:30:08.968Z,12.50
2023-05-24T21:40:07.382Z,12.60
2023-05-24T21:44:59.223Z,12.60
2023-05-24T21:54:57.607Z,12.60
2023-05-24T23:02:58.182Z,12.80
2023-05-24T23:07:49.927Z,12.80
2023-05-24T23:12:42.091Z,12.80
2023-05-24T23:17:33.828Z,12.80
2023-05-24T23:22:26.157Z,12.80
2023-05-24T23:32:25.790Z,12.70
2023-05-24T23:37:17.583Z,12.60
2023-05-24T23:42:09.339Z,12.60
2023-05-24T23:47:02.311Z,12.60
2023-05-24T23:51:55.272Z,12.50
2023-05-24T23:56:47.401Z,12.60
